Glenshire Elementary, Truckee, California Weather observations

Data are for observation ending at time listed.
 Day   Time    Ave.   Ave.  Ave.  Vector   Max.   Stn.    Total    Solar   Ave.   Snow 
  of    of     Air    Rel.  Wind   Wind    Wind   Baro.  Precip.   Rad.    Soil   Depth
Year   Day     Temp.  Hum.  Speed  Dir.    Gust   Pres.                    Temp.       
2015   (PST)    F      %     mph   deg.    mph     mb.     in.     W/m2     F      in. 
---------------------------------------------------------------------------------------  
 147    5:50   34.4    95    0.4    78      0.4   821.5    0.00     153    53.1   999.0
 147    6:00   35.9    94    0.4    90      0.4   821.5    0.00     193    53.2   999.0
 147    6:10   37.1    94    0.4    94      0.4   821.5    0.00     197    53.2   999.0
 147    6:20   38.1    92    0.6    84      2.1   821.5    0.00     256    53.2   999.0
 147    6:30   39.4    91    0.4    99      0.4   821.5    0.00     258    53.1   999.0
 147    6:40   40.5    87    0.5    75      2.9   821.5    0.00     308    53.1   999.0
 147    6:50   41.1    85    0.9    76      3.8   821.5    0.00     322    53.2   999.0
 147    7:00   42.1    82    0.4    73      0.4   821.6    0.00     367    53.2   999.0
 147    7:10   43.8    78    0.4    62      0.4   821.6    0.00     386    53.2   999.0
 147    7:20   46.0    74    0.6    80      2.9   821.5    0.00     433    53.2   999.0
 147    7:30   47.8    69    0.6   196      2.9   821.5    0.00     451    53.2   999.0
 147    7:40   49.5    64    0.6   202      2.9   821.5    0.00     476    53.2   999.0
 147    7:50   50.8    62    0.7   162      2.9   821.4    0.00     515    53.2   999.0
 147    8:00   51.8    60    0.7   236      2.9   821.4    0.00     518    53.2   999.0
 147    8:10   53.2    58    0.9   205      2.9   821.3    0.00     546    53.2   999.0
 147    8:20   54.3    56    0.6   202      2.9   821.3    0.00     548    53.2   999.0
 147    8:30   55.8    56    0.7   335      2.9   821.2    0.00     603    53.2   999.0
 147    8:40   55.7    56    0.8   128      2.9   821.1    0.00     611    53.2   999.0
 147    8:50   57.6    53    0.4    81      0.4   821.0    0.00     633    53.2   999.0
 147    9:00   59.2    47    0.4   198      0.4   821.0    0.00     676    53.2   999.0
 147    9:10   60.8    44    0.8   122      3.8   820.9    0.00     676    53.2   999.0
 147    9:20   61.0    40    1.8   111      4.6   820.9    0.00     710    53.2   999.0
 147    9:30   61.7    36    2.1    86      5.4   820.8    0.00     740    53.2   999.0
 147    9:40   62.7    34    1.4   122      4.6   820.8    0.00     740    53.2   999.0
 147    9:50   64.0    34    1.8   119      4.6   820.7    0.00     749    53.2   999.0
 147   10:00   64.3    34    1.8    94      6.3   820.7    0.00     800    53.2   999.0
 147   10:10   64.8    34    3.9    84      9.6   820.6    0.00     804    53.2   999.0
 147   10:20   65.5    34    1.6    62      5.4   820.6    0.00     804    53.2   999.0
 147   10:30   66.7    32    1.4    12      5.4   820.5    0.00     812    53.2   999.0
 147   10:40   65.6    33    2.9    70     10.5   820.5    0.00     852    53.2   999.0
 147   10:50   67.5    31    2.7   272      9.6   820.4    0.00     868    53.2   999.0
 147   11:00   66.8    32    3.5    82      9.6   820.4    0.00     719    53.2   999.0
 147   11:10   66.3    31    4.3    84     10.5   820.4    0.00     888    53.2   999.0
 147   11:20   68.2    28    3.3    78     11.3   820.4    0.00     929    53.2   999.0
 147   11:30   67.6    29    4.4    69     12.1   820.4    0.00     903    53.3   999.0
 147   11:40   67.8    29    4.4    80     12.1   820.3    0.00     887    53.3   999.0
 147   11:50   68.2    29    4.0    72     13.0   820.3    0.00     891    53.3   999.0
 147   12:00   69.3    27    2.7    76      9.6   820.3    0.00     900    53.3   999.0
 147   12:10   68.8    27    4.3    79     13.0   820.2    0.00     873    53.2   999.0
 147   12:20   69.0    27    4.9    72     12.1   820.2    0.00     868    53.2   999.0
 147   12:30   68.5    27    5.3    75     13.0   820.2    0.00     868    53.2   999.0
 147   12:40   69.7    26    3.3    80     13.0   820.2    0.00     805    53.2   999.0
 147   12:50   69.0    28    5.9    79     13.8   820.2    0.00     868    53.2   999.0
 147   13:00   68.9    26    4.2    72     11.3   820.1    0.00     868    53.2   999.0
 147   13:10   68.9    28    6.1    80     16.3   820.1    0.00     868    53.2   999.0
 147   13:20   70.2    27    3.8    80     10.5   820.1    0.00     868    53.2   999.0
 147   13:30   70.0    27    6.1    80     13.0   820.0    0.00     865    53.3   999.0
 147   13:40   70.2    27    3.8    78     10.5   820.0    0.00     829    53.3   999.0
 147   13:50   70.2    28    4.8    69     16.3   820.0    0.00     804    53.3   999.0
 147   14:00   69.2    27    5.6    77     13.0   820.0    0.00     804    53.3   999.0
 147   14:10   69.0    28    5.3    85     11.3   820.0    0.00     802    53.3   999.0
 147   14:20   69.4    30    5.7    77     13.8   820.0    0.00     759    53.3   999.0
 147   14:30   70.0    29    6.0    77     11.3   820.0    0.00     740    53.3   999.0
 147   14:40   69.2    29    4.5    74      9.6   820.0    0.00     740    53.3   999.0
 147   14:50   69.9    29    5.8    79     13.0   820.0    0.00     706    53.3   999.0
 147   15:00   69.0    30    5.8    77     14.7   820.0    0.00     675    53.3   999.0
 147   15:10   68.9    29    6.0    78     12.1   820.0    0.00     659    53.3   999.0
 147   15:20   69.0    29    5.9    74     14.7   820.0    0.00     611    53.3   999.0
 147   15:30   68.3    29    6.7    75     14.7   820.1    0.00     611    53.3   999.0
 147   15:40   69.0    28    4.9    76     12.1   820.2    0.00     565    53.3   999.0
 147   15:50   68.1    28    7.2    78     20.5   820.1    0.00     547    53.3   999.0
 147   16:00   68.3    28    4.7    76     16.3   820.2    0.00     534    53.3   999.0
 147   16:10   68.5    28    5.7    76     15.5   820.2    0.00     514    53.2   999.0
 147   16:20   67.7    28    4.5    73     14.7   820.2    0.00     507    53.1   999.0
 147   16:30   68.1    28    3.8    78     13.0   820.3    0.00     452    53.3   999.0
 147   16:40   68.5    28    3.8    73     12.1   820.3    0.00     448    53.3   999.0
 147   16:50   67.2    29    4.6    79     12.1   820.3    0.00     392    53.3   999.0
 147   17:00   66.4    29    5.6    74     13.8   820.3    0.00     386    53.3   999.0
 147   17:10   68.4    28    1.4    66     10.5   820.3    0.00     332    53.3   999.0
 147   17:20   67.6    29    3.5    76     11.3   820.4    0.00     322    53.3   999.0
 147   17:30   66.8    29    3.8    77     10.5   820.4    0.00     277    53.3   999.0
 147   17:40   66.6    30    3.1    71     10.5   820.5    0.00     257    53.3   999.0
 147   17:50   65.9    30    4.9    76     13.8   820.6    0.00     223    53.3   999.0
 147   18:00   64.7    31    4.7    73     12.1   820.7    0.00     193    53.2   999.0
 147   18:10   63.9    32    5.6    75     12.1   820.8    0.00     173    53.3   999.0
 147   18:20   64.3    31    2.9    71      8.0   820.8    0.00     129    53.2   999.0
 147   18:30   64.0    32    3.1    74      9.6   820.8    0.00     128    53.3   999.0
 147   18:40   62.9    33    4.1    76     13.0   820.9    0.00      69    53.3   999.0
 147   18:50   62.0    34    3.6    75     10.5   821.0    0.00      64    53.3   999.0
 147   19:00   61.1    36    2.5    71      8.8   821.0    0.00      17    53.3   999.0
 147   19:10   59.6    39    1.0    37      5.4   821.1    0.00       0    53.3   999.0
 147   19:20   58.6    42    0.4   288      0.4   821.2    0.00       0    53.2   999.0
 147   19:30   57.6    44    0.4   293      0.4   821.3    0.00       0    53.2   999.0
 147   19:40   56.8    45    0.4   293      0.4   821.3    0.00       0    53.3   999.0
 147   19:50   56.1    47    0.4   305      0.4   821.5    0.00       0    53.3   999.0
 147   20:00   55.3    50    0.4   346      0.4   821.6    0.00       0    53.3   999.0
 147   20:10   54.3    53    0.4   295      0.4   821.7    0.00       0    53.3   999.0
 147   20:20   53.5    55    0.4   288      0.4   821.8    0.00       0    53.3   999.0
 147   20:30   52.8    56    0.6   262      2.1   822.0    0.00       0    53.3   999.0
 147   20:40   52.1    58    0.4   254      0.4   822.0    0.00       0    53.3   999.0
 147   20:50   51.5    59    0.4   254      0.4   822.0    0.00       0    53.3   999.0
 147   21:00   50.8    62    0.4   263      0.4   822.1    0.00       0    53.3   999.0
 147   21:10   50.1    63    0.4   300      0.4   822.2    0.00       0    53.3   999.0
 147   21:20   49.4    64    0.4   296      0.4   822.2    0.00       0    53.3   999.0
 147   21:30   48.0    68    0.7    57      2.9   822.4    0.00       0    53.3   999.0
 147   21:40   47.5    70    0.4    34      0.4   822.4    0.00       0    53.3   999.0
 147   21:50   47.3    70    0.4     5      0.4   822.5    0.00       0    53.3   999.0
 147   22:00   47.4    69    0.4   252      0.4   822.4    0.00       0    53.3   999.0
 147   22:10   46.9    71    0.4   252      0.4   822.4    0.00       0    53.3   999.0
 147   22:20   46.3    72    0.4   252      0.4   822.4    0.00       0    53.3   999.0
 147   22:30   45.7    73    0.4   252      0.4   822.3    0.00       0    53.3   999.0
 147   22:40   45.0    73    0.4   182      0.4   822.4    0.00       0    53.3   999.0
 147   22:50   44.3    76    0.4   160      0.4   822.4    0.00       0    53.3   999.0
 147   23:00   43.4    80    0.4   135      0.4   822.5    0.00       0    53.3   999.0
 147   23:10   42.8    81    0.4    46      0.4   822.6    0.00       0    53.3   999.0
 147   23:20   42.6    80    0.4    45      0.4   822.7    0.00       0    53.3   999.0
 147   23:30   42.1    81    0.4    44      0.4   822.7    0.00       0    53.3   999.0
 147   23:40   41.5    82    0.4    44      0.4   822.6    0.00       0    53.3   999.0
 147   23:50   41.3    81    0.5   255      2.1   822.7    0.00       0    53.3   999.0
 148    0:00   41.0    80    0.4   215      1.2   822.6    0.00       0    53.3   999.0
 148    0:10   40.6    81    0.4   211      0.4   822.5    0.00       0    53.3   999.0
 148    0:20   40.2    82    0.4   211      0.4   822.4    0.00       0    53.3   999.0
 148    0:30   39.8    83    0.6    94      2.1   822.4    0.00       0    53.3   999.0
 148    0:40   38.9    86    0.4    69      0.4   822.3    0.00       0    53.3   999.0
 148    0:50   38.7    87    0.4    69      0.4   822.3    0.00       0    53.3   999.0
 148    1:00   38.2    88    0.4    69      0.4   822.3    0.00       0    53.3   999.0
 148    1:10   37.9    89    0.4    69      0.4   822.3    0.00       0    53.3   999.0
 148    1:20   37.6    90    0.4    69      0.4   822.4    0.00       0    53.3   999.0
 148    1:30   37.5    90    0.4    69      0.4   822.4    0.00       0    53.3   999.0
 148    1:40   37.7    89    0.4    69      0.4   822.4    0.00       0    53.3   999.0
 148    1:50   37.3    88    0.4    69      0.4   822.4    0.00       0    53.3   999.0
 148    2:00   36.9    89    0.4   102      0.4   822.4    0.00       0    53.3   999.0
 148    2:10   36.7    89    0.4   178      0.4   822.4    0.00       0    53.3   999.0
 148    2:20   36.5    88    0.4   211      0.4   822.4    0.00       0    53.3   999.0
 148    2:30   35.9    88    0.5   219      2.1   822.4    0.00       0    53.3   999.0
 148    2:40   35.7    87    0.4   229      0.4   822.3    0.00       0    53.4   999.0
 148    2:50   35.2    88    0.4   229      0.4   822.3    0.00       0    53.4   999.0
 148    3:00   35.1    90    0.4   229      0.4   822.3    0.00       0    53.4   999.0
 148    3:10   34.9    91    0.4   229      0.4   822.4    0.00       0    53.4   999.0
 148    3:20   34.7    91    0.4   229      0.4   822.4    0.00       0    53.4   999.0
 148    3:30   34.5    91    0.4   229      0.4   822.4    0.00       0    53.4   999.0
 148    3:40   34.1    92    0.4   229      0.4   822.4    0.00       0    53.4   999.0
 148    3:50   34.1    92    0.5   245      2.9   822.3    0.00       0    53.4   999.0
 148    4:00   33.6    92    0.4   241      0.4   822.4    0.00       0    53.4   999.0
 148    4:10   33.5    92    0.4   241      0.4   822.4    0.00       0    53.4   999.0
 148    4:20   33.5    92    0.4   241      0.4   822.3    0.00       0    53.4   999.0
 148    4:30   33.3    92    0.4   241      0.4   822.4    0.00       0    53.4   999.0
 148    4:40   32.9    92    0.4   240      0.4   822.4    0.00       0    53.4   999.0
 148    4:50   32.7    92    0.4   240      0.4   822.5    0.00       0    53.4   999.0
 148    5:00   32.9    93    0.4   240      0.4   822.5    0.00       0    53.4   999.0
 148    5:10   33.3    93    0.4   240      0.4   822.6    0.00      48    53.4   999.0
 148    5:20   33.5    92    0.4   237      0.4   822.7    0.00      64    53.4   999.0
 148    5:30   35.5    90    0.4   218      0.4   822.8    0.00     121    53.4   999.0
 148    5:40   36.3    87    0.4   218      0.4   822.9    0.00     129    53.4   999.0

Return to Glenshire Elementary graphs page.


Western Regional Climate Center,wrcc@dri.edu